Fargo, ND (58102)

7:11 AM CST on February 13, 2016 (GMT -0600)
Hector International | | Change Station
CLOSE
Current Station
Airport
Location: Fargo,
Elevation: 899 ft
Nearby Weather Stations

Elev 899 ft 46.91 °N, 96.81 °W | Updated 18 minutes ago

Clear
Clear
-5 °F
Feels Like -19 °F
N
7
Wind Variable Wind from SSE

Today
High -- | Low -- °F
--% Chance of Precip.
Yesterday
High -- | Low -- °F
Precip. -- in
Pressure 30.67 in
Visibility 10.0 miles
Clouds Clear
Windchill -19 °F
Dew Point -11 °F
Humidity 76%
Rainfall 0.00 in
Snow Depth Not available.
7:35 AM 5:48 PM
Waxing Crescent, 30% visible
METAR KFAR 131253Z 15006KT 10SM CLR M21/M24 A3058 RMK AO2 SLP386 T12061239
Pressure 30.67 in
Visibility 10.0 miles
Clouds Clear
Windchill -19 °F
Dew Point -11 °F
Humidity 76%
Rainfall 0.00 in
Snow Depth Not available.
7:35 AM 5:48 PM
Waxing Crescent, 30% visible
METAR KFAR 131253Z 15006KT 10SM CLR M21/M24 A3058 RMK AO2 SLP386 T12061239

10-Day Weather Forecast

Almanac

Astronomy

Feb. 13, 2016 Rise Set
Actual Time
Civil Twilight
Nautical Twilight
Astronomical Twilight
Moon
Length of Visible Light
Length of Day
Tomorrow will be .
, % of the Moon is Illuminated

Today's Extremes

State Highs State Lows

Community

WunderPhotos

Upload Photos

1,892,545 photos uploaded!

WunderBlog® & News

Nearby

Air Quality

  Air Quality AQ Index Pollutant
Not available.

Snow Depth

Station Depth Elevation

Earthquake Activity

City Distance Mag. Time & Date
Minimum magnitude displayed is 2.5.

Coastal Water Temperatures

Place Temperature

Stations

Nearby Weather Stations

Station Location Temp. Windchill Dew Point Humidity Wind Precip. Elev Updated Type
                   

Watches & Warnings

There are currently no watches in effect.